Iolcos Ambition — 9HA2957 — position and weather

sailwx.info

Track history (hours):
 
Tides and Currents Weather Stations Pressure Air Temp Water Temp Dewpoint Dewpoint Depression Visibility Wind Speed Wind Dir Waves Ship Positions

Iolcos Ambition

Last reported at 2018-Jul-16 10:12 UTC. Time now 2018-Jul-18 23:52 UTC.
Position S 29°42' E 031°36'.

Length 229 m; draft 12.5 m.

Type: Cargo ship. MMSI: 256900000.

Date/timePositionNaut miles runAvg speedWind from/ knotsBaromVisibWave heightAir tempDewpointWater temp
2018-Jul-16 10:12S 29°42' E 031°36'212.5
2018-Jul-16 10:01S 29°43' E 031°33'812.6
2018-Jul-16 09:21S 29°46' E 031°24'413.0
2018-Jul-16 09:00S 29°48' E 031°20'713.2
2018-Jul-16 08:30S 29°51' E 031°13'6 6.6
2018-Jul-16 07:32S 29°55' E 031°07'0 8.5
2018-Jul-16 07:30S 29°55' E 031°07'611.3
2018-Jul-16 07:00S 30°00' E 031°04'611.4
2018-Jul-16 06:30S 30°05' E 031°01'  
Track history (hours):
 
Tides and Currents Weather Stations Pressure Air Temp Water Temp Dewpoint Dewpoint Depression Visibility Wind Speed Wind Dir Waves Ship Positions

Iolcos Ambition

Last reported at 2018-Jul-16 10:12 UTC. Time now 2018-Jul-18 23:52 UTC.
Position S 29°42' E 031°36'.

Length 229 m; draft 12.5 m.

Type: Cargo ship. MMSI: 256900000.

Date/timePositionNaut miles runAvg speedWind from/ knotsBaromVisibWave heightAir tempDewpointWater temp
2018-Jul-16 10:12S 29°42' E 031°36'212.5
2018-Jul-16 10:01S 29°43' E 031°33'812.6
2018-Jul-16 09:21S 29°46' E 031°24'413.0
2018-Jul-16 09:00S 29°48' E 031°20'713.2
2018-Jul-16 08:30S 29°51' E 031°13'6 6.6
2018-Jul-16 07:32S 29°55' E 031°07'0 8.5
2018-Jul-16 07:30S 29°55' E 031°07'611.3
2018-Jul-16 07:00S 30°00' E 031°04'611.4
2018-Jul-16 06:30S 30°05' E 031°01'  

Dump ship's entire track history